createdAt,value
2023-05-12T00:01:08.231Z,4.97
2023-05-12T00:03:34.898Z,4.90
2023-05-12T00:06:04.553Z,4.53
2023-05-12T00:08:31.422Z,4.73
2023-05-12T00:10:58.543Z,4.47
2023-05-12T00:13:25.273Z,5.00
2023-05-12T00:15:52.096Z,5.40
2023-05-12T00:18:18.827Z,5.23
2023-05-12T00:20:45.526Z,4.83
2023-05-12T00:23:12.223Z,5.20
2023-05-12T00:25:38.958Z,4.43
2023-05-12T00:28:05.882Z,4.97
2023-05-12T00:30:32.538Z,4.60
2023-05-12T00:32:59.475Z,4.73
2023-05-12T00:35:26.168Z,4.77
2023-05-12T00:37:52.924Z,4.40
2023-05-12T00:40:19.867Z,3.93
2023-05-12T00:42:46.637Z,4.40
2023-05-12T00:45:13.265Z,4.37
2023-05-12T00:47:40.214Z,5.00
2023-05-12T00:50:08.407Z,4.60
2023-05-12T00:52:35.760Z,4.90
2023-05-12T00:55:03.539Z,4.80
2023-05-12T00:57:30.462Z,4.93
2023-05-12T00:59:57.210Z,4.90
2023-05-12T01:02:24.205Z,5.80
2023-05-12T01:04:51.582Z,4.60
2023-05-12T01:07:21.508Z,3.90
2023-05-12T01:09:48.519Z,5.10
2023-05-12T01:12:15.436Z,5.57
2023-05-12T01:14:42.392Z,4.63
2023-05-12T01:17:13.574Z,5.00
2023-05-12T01:19:53.488Z,4.77
2023-05-12T01:22:20.500Z,5.30
2023-05-12T01:24:52.491Z,4.40
2023-05-12T01:27:21.175Z,5.40
2023-05-12T01:29:48.692Z,4.60
2023-05-12T01:32:15.861Z,4.50
2023-05-12T01:34:43.210Z,4.47
2023-05-12T01:37:10.710Z,4.77
2023-05-12T01:39:38.063Z,4.53
2023-05-12T01:42:05.798Z,4.80
2023-05-12T01:44:32.743Z,5.83
2023-05-12T01:46:59.373Z,5.13
2023-05-12T01:49:26.222Z,4.70
2023-05-12T01:51:52.880Z,4.73
2023-05-12T01:54:19.858Z,4.07
2023-05-12T01:56:46.563Z,5.60
2023-05-12T01:59:13.334Z,4.87
2023-05-12T02:01:40.056Z,4.50
2023-05-12T02:04:08.813Z,4.97
2023-05-12T02:06:35.605Z,4.60
2023-05-12T02:09:02.658Z,5.60
2023-05-12T02:11:29.376Z,4.20
2023-05-12T02:13:56.307Z,4.53
2023-05-12T02:16:22.988Z,4.93
2023-05-12T02:18:49.699Z,5.30
2023-05-12T02:21:17.579Z,4.87
2023-05-12T02:23:44.227Z,5.60
2023-05-12T02:26:10.892Z,5.03
2023-05-12T02:28:37.672Z,5.63
2023-05-12T02:31:04.437Z,5.17
2023-05-12T02:33:31.297Z,4.97
2023-05-12T02:35:57.867Z,5.53
2023-05-12T02:38:24.694Z,4.80
2023-05-12T02:40:51.323Z,4.10
2023-05-12T02:43:18.071Z,4.80
2023-05-12T02:45:44.727Z,5.00
2023-05-12T02:48:11.439Z,3.97
2023-05-12T02:50:38.060Z,4.60
2023-05-12T02:53:04.738Z,4.67
2023-05-12T02:55:31.452Z,4.73
2023-05-12T02:57:58.091Z,4.93
2023-05-12T03:00:24.814Z,4.57
2023-05-12T03:02:51.641Z,4.60
2023-05-12T03:05:18.519Z,5.10
2023-05-12T03:07:45.261Z,5.63
2023-05-12T03:10:11.929Z,4.40
2023-05-12T03:12:38.592Z,4.43
2023-05-12T03:15:05.577Z,4.87
2023-05-12T03:17:32.346Z,4.90
2023-05-12T03:19:58.976Z,4.03
2023-05-12T03:22:25.814Z,4.37
2023-05-12T03:24:52.836Z,4.40
2023-05-12T03:27:19.945Z,4.33
2023-05-12T03:29:46.692Z,4.87
2023-05-12T03:32:13.882Z,4.90
2023-05-12T03:34:40.495Z,4.30
2023-05-12T03:37:07.266Z,4.80
2023-05-12T03:39:33.891Z,4.63
2023-05-12T03:42:00.615Z,4.03
2023-05-12T03:44:27.219Z,3.73
2023-05-12T03:46:53.875Z,4.87
2023-05-12T03:49:20.503Z,4.60
2023-05-12T03:51:47.334Z,4.20
2023-05-12T03:54:13.991Z,5.07
2023-05-12T03:56:40.619Z,4.50
2023-05-12T03:59:07.339Z,4.83
2023-05-12T04:01:34.056Z,4.60
2023-05-12T04:04:00.951Z,4.33
2023-05-12T04:06:27.630Z,4.43
2023-05-12T04:08:54.260Z,4.90
2023-05-12T04:11:21.209Z,4.20
2023-05-12T04:13:47.865Z,5.03
2023-05-12T04:16:14.517Z,4.07
2023-05-12T04:18:41.223Z,4.10
2023-05-12T04:21:08.029Z,3.90
2023-05-12T04:23:34.641Z,5.20
2023-05-12T04:26:05.135Z,5.27
2023-05-12T04:28:32.060Z,4.53
2023-05-12T04:31:03.957Z,4.13
2023-05-12T04:33:31.048Z,4.70
2023-05-12T04:35:58.837Z,4.57
2023-05-12T04:38:26.089Z,4.20
2023-05-12T04:40:57.344Z,5.13
2023-05-12T04:45:57.551Z,5.37
2023-05-12T04:48:25.288Z,4.57
2023-05-12T04:50:51.944Z,4.50
2023-05-12T04:53:18.558Z,4.43
2023-05-12T04:55:46.095Z,4.57
2023-05-12T04:58:16.012Z,4.60
2023-05-12T05:00:43.119Z,4.30
2023-05-12T05:03:09.918Z,4.30
2023-05-12T05:05:36.566Z,4.53
2023-05-12T05:08:03.126Z,4.40
2023-05-12T05:10:29.788Z,4.57
2023-05-12T05:12:56.556Z,4.83
2023-05-12T05:15:23.564Z,4.33
2023-05-12T05:17:50.345Z,4.90
2023-05-12T05:20:17.488Z,4.70
2023-05-12T05:22:44.235Z,4.43
2023-05-12T05:25:11.326Z,4.47
2023-05-12T05:27:38.869Z,5.53
2023-05-12T05:30:08.993Z,4.83
2023-05-12T05:32:37.186Z,4.70
2023-05-12T05:35:04.052Z,4.80
2023-05-12T05:37:30.674Z,5.90
2023-05-12T05:39:57.505Z,4.93
2023-05-12T05:42:24.366Z,5.03
2023-05-12T05:44:50.946Z,4.77
2023-05-12T05:47:17.713Z,4.50
2023-05-12T05:49:44.463Z,5.00
2023-05-12T05:52:11.069Z,5.50
2023-05-12T05:54:37.752Z,4.33
2023-05-12T05:57:04.657Z,4.47
2023-05-12T05:59:32.187Z,4.87
2023-05-12T06:01:59.039Z,5.83
2023-05-12T06:04:25.911Z,4.43
2023-05-12T06:06:52.745Z,6.63
2023-05-12T06:09:19.433Z,5.00
2023-05-12T06:11:46.156Z,5.07
2023-05-12T06:14:12.849Z,4.60
2023-05-12T06:16:39.655Z,4.43
2023-05-12T06:19:06.738Z,4.73
2023-05-12T06:21:33.484Z,4.93
2023-05-12T06:24:00.177Z,5.10
2023-05-12T06:26:26.870Z,4.53
2023-05-12T06:28:53.502Z,5.10
2023-05-12T06:31:20.148Z,4.80
2023-05-12T06:33:46.905Z,4.30
2023-05-12T06:36:13.654Z,5.17
2023-05-12T06:38:40.375Z,5.07
2023-05-12T06:41:07.086Z,4.40
2023-05-12T06:43:33.705Z,5.17
2023-05-12T06:46:00.426Z,4.73
2023-05-12T06:48:27.121Z,4.60
2023-05-12T06:50:53.940Z,4.07
2023-05-12T06:53:20.969Z,4.60
2023-05-12T06:55:50.408Z,4.47
2023-05-12T06:58:18.942Z,4.30
2023-05-12T07:00:45.554Z,4.50
2023-05-12T07:03:12.198Z,4.60
2023-05-12T07:05:39.563Z,4.10
2023-05-12T07:08:06.242Z,4.17
2023-05-12T07:10:33.166Z,4.13
2023-05-12T07:12:59.885Z,4.03
2023-05-12T07:15:26.654Z,4.57
2023-05-12T07:17:54.312Z,4.80
2023-05-12T07:20:21.388Z,4.20
2023-05-12T07:22:48.202Z,4.60
2023-05-12T07:25:15.988Z,4.67
2023-05-12T07:27:42.715Z,5.37
2023-05-12T07:30:09.558Z,4.77
2023-05-12T07:32:36.405Z,4.77
2023-05-12T07:35:03.745Z,5.10
2023-05-12T07:37:30.524Z,4.77
2023-05-12T07:39:57.117Z,4.20
2023-05-12T07:42:24.249Z,3.87
2023-05-12T07:44:50.873Z,3.80
2023-05-12T07:47:17.662Z,4.60
2023-05-12T07:49:44.328Z,7.10
2023-05-12T07:52:10.939Z,4.70
2023-05-12T07:54:37.572Z,4.03
2023-05-12T07:57:04.500Z,4.10
2023-05-12T07:59:31.160Z,4.87
2023-05-12T08:01:58.744Z,4.17
2023-05-12T08:04:25.588Z,6.10
2023-05-12T08:06:52.568Z,4.40
2023-05-12T08:09:19.148Z,4.20
2023-05-12T08:11:48.098Z,4.00
2023-05-12T08:14:16.784Z,3.40
2023-05-12T08:16:46.326Z,4.17
2023-05-12T08:19:13.866Z,5.20
2023-05-12T08:21:40.608Z,4.63
2023-05-12T08:24:07.277Z,4.10
2023-05-12T08:26:34.103Z,5.10
2023-05-12T08:29:01.510Z,4.73
2023-05-12T08:31:28.218Z,4.83
2023-05-12T08:36:26.165Z,4.37
2023-05-12T08:38:52.803Z,4.43
2023-05-12T08:41:23.007Z,4.97
2023-05-12T08:43:53.166Z,4.50
2023-05-12T08:46:20.990Z,4.23
2023-05-12T08:48:52.016Z,3.03
2023-05-12T08:51:19.825Z,4.00
2023-05-12T08:53:49.285Z,4.90
2023-05-12T08:58:49.774Z,3.77
2023-05-12T09:01:18.024Z,3.87
2023-05-12T09:03:45.310Z,3.53
2023-05-12T09:06:12.139Z,3.70
2023-05-12T09:08:40.460Z,3.83
2023-05-12T09:11:10.750Z,3.70
2023-05-12T09:14:08.162Z,4.97
2023-05-12T09:16:39.926Z,4.13
2023-05-12T09:19:07.216Z,3.80
2023-05-12T09:21:34.690Z,3.70
2023-05-12T09:24:06.091Z,4.43
2023-05-12T09:26:48.270Z,3.90
2023-05-12T09:29:27.873Z,3.90
2023-05-12T09:31:59.430Z,3.90
2023-05-12T09:34:30.970Z,3.90
2023-05-12T09:37:01.010Z,3.40
2023-05-12T09:39:28.932Z,4.10
2023-05-12T09:41:55.899Z,3.47
2023-05-12T09:44:24.489Z,3.37
2023-05-12T09:46:51.474Z,3.10
2023-05-12T09:49:25.455Z,3.67
2023-05-12T09:51:54.114Z,4.13
2023-05-12T09:54:29.555Z,4.07
2023-05-12T09:56:59.617Z,3.10
2023-05-12T09:59:34.809Z,3.97
2023-05-12T10:02:04.706Z,3.33
2023-05-12T10:04:43.235Z,3.47
2023-05-12T10:07:13.031Z,3.60
2023-05-12T10:09:42.449Z,3.23
2023-05-12T10:12:09.449Z,4.13
2023-05-12T10:14:37.426Z,3.57
2023-05-12T10:17:06.907Z,3.80
2023-05-12T10:19:35.574Z,4.20
2023-05-12T10:22:02.935Z,3.83
2023-05-12T10:24:29.623Z,2.87
2023-05-12T10:26:59.714Z,3.00
2023-05-12T10:29:31.057Z,3.27
2023-05-12T10:31:58.499Z,3.07
2023-05-12T10:34:32.661Z,3.80
2023-05-12T10:36:59.308Z,3.70
2023-05-12T10:39:30.738Z,3.40
2023-05-12T10:42:08.537Z,3.90
2023-05-12T10:44:36.413Z,3.27
2023-05-12T10:47:13.823Z,3.50
2023-05-12T10:49:41.891Z,3.90
2023-05-12T10:52:12.561Z,3.37
2023-05-12T10:54:44.742Z,3.23
2023-05-12T10:57:20.966Z,3.40
2023-05-12T10:59:49.840Z,3.10
2023-05-12T11:02:25.677Z,3.27
2023-05-12T11:05:01.009Z,3.43
2023-05-12T11:07:31.299Z,2.90
2023-05-12T11:10:01.991Z,3.47
2023-05-12T11:12:32.699Z,2.93
2023-05-12T11:15:01.371Z,3.37
2023-05-12T11:17:28.179Z,2.70
2023-05-12T11:19:55.569Z,3.93
2023-05-12T11:22:23.647Z,3.53
2023-05-12T11:24:51.254Z,3.30
2023-05-12T11:27:19.936Z,3.60
2023-05-12T11:30:01.194Z,3.30
2023-05-12T11:32:29.617Z,3.33
2023-05-12T11:34:56.817Z,3.87
2023-05-12T11:37:23.632Z,3.00
2023-05-12T11:39:52.835Z,4.07
2023-05-12T11:42:20.676Z,3.93
2023-05-12T11:44:49.563Z,3.67
2023-05-12T11:47:17.257Z,3.60
2023-05-12T11:49:54.900Z,3.73
2023-05-12T11:52:23.278Z,3.80
2023-05-12T11:54:58.507Z,3.80
2023-05-12T11:57:32.728Z,4.17
2023-05-12T12:00:07.727Z,3.20
2023-05-12T12:02:35.822Z,2.97
2023-05-12T12:05:03.055Z,3.30
2023-05-12T12:07:34.912Z,3.37
2023-05-12T12:10:14.956Z,2.70
2023-05-12T12:12:42.672Z,3.67
2023-05-12T12:15:10.886Z,3.37
2023-05-12T12:17:38.224Z,3.60
2023-05-12T12:20:05.448Z,3.30
2023-05-12T12:22:35.202Z,3.40
2023-05-12T12:25:02.772Z,3.13
2023-05-12T12:27:29.689Z,3.83
2023-05-12T12:29:56.459Z,3.40
2023-05-12T12:32:23.127Z,4.17
2023-05-12T12:34:49.764Z,4.07
2023-05-12T12:37:17.072Z,2.90
2023-05-12T12:39:43.744Z,3.37
2023-05-12T12:42:10.389Z,3.30
2023-05-12T12:44:37.022Z,3.67
2023-05-12T12:47:04.314Z,2.73
2023-05-12T12:49:31.016Z,2.93
2023-05-12T12:51:57.775Z,2.73
2023-05-12T12:54:27.085Z,3.10
2023-05-12T12:56:55.304Z,3.30
2023-05-12T12:59:22.579Z,3.70
2023-05-12T13:01:49.294Z,2.67
2023-05-12T13:04:17.130Z,3.07
2023-05-12T13:06:43.788Z,2.93
2023-05-12T13:09:10.773Z,2.60
2023-05-12T13:11:37.639Z,3.07
2023-05-12T13:14:04.879Z,2.87
2023-05-12T13:16:31.675Z,2.80
2023-05-12T13:18:59.039Z,2.90
2023-05-12T13:21:25.778Z,3.03
2023-05-12T13:23:52.520Z,2.67
2023-05-12T13:26:19.192Z,3.70
2023-05-12T13:28:45.900Z,3.00
2023-05-12T13:31:12.651Z,3.00
2023-05-12T13:33:39.329Z,3.00
2023-05-12T13:36:06.388Z,2.67
2023-05-12T13:38:33.895Z,2.60
2023-05-12T13:41:00.625Z,3.67
2023-05-12T13:43:27.352Z,2.90
2023-05-12T13:45:53.935Z,2.87
2023-05-12T13:48:20.834Z,2.60
2023-05-12T13:50:47.950Z,2.70
2023-05-12T13:53:14.586Z,3.03
2023-05-12T13:55:41.342Z,2.27
2023-05-12T13:58:08.022Z,2.80
2023-05-12T14:00:34.744Z,2.70
2023-05-12T14:03:01.708Z,3.40
2023-05-12T14:05:28.977Z,3.27
2023-05-12T14:07:55.720Z,2.97
2023-05-12T14:10:22.348Z,2.73
2023-05-12T14:12:49.022Z,2.90
2023-05-12T14:15:26.489Z,3.03
2023-05-12T14:17:59.998Z,3.30
2023-05-12T14:20:26.765Z,3.33
2023-05-12T14:22:53.585Z,2.93
2023-05-12T14:25:20.450Z,3.07
2023-05-12T14:27:47.297Z,2.30
2023-05-12T14:30:14.460Z,2.70
2023-05-12T14:32:41.241Z,3.87
2023-05-12T14:35:10.243Z,3.13
2023-05-12T14:37:37.388Z,2.90
2023-05-12T14:40:05.384Z,3.20
2023-05-12T14:42:32.328Z,3.47
2023-05-12T14:44:59.215Z,3.30
2023-05-12T14:47:26.020Z,3.53
2023-05-12T14:49:52.822Z,3.23
2023-05-12T14:52:19.478Z,3.20
2023-05-12T14:54:46.398Z,3.40
2023-05-12T14:57:13.663Z,3.53
2023-05-12T14:59:40.326Z,2.97
2023-05-12T15:02:07.996Z,3.00
2023-05-12T15:04:34.724Z,2.97
2023-05-12T15:07:01.436Z,3.10
2023-05-12T15:09:28.033Z,3.17
2023-05-12T15:11:55.078Z,3.20
2023-05-12T15:14:21.978Z,2.80
2023-05-12T15:16:48.673Z,3.17
2023-05-12T15:19:15.522Z,3.47
2023-05-12T15:21:42.298Z,3.53
2023-05-12T15:24:08.949Z,3.93
2023-05-12T15:26:38.244Z,3.50
2023-05-12T15:29:07.249Z,3.30
2023-05-12T15:31:34.375Z,3.50
2023-05-12T15:34:01.072Z,3.73
2023-05-12T15:36:27.668Z,3.50
2023-05-12T15:38:54.297Z,3.40
2023-05-12T15:41:21.500Z,4.03
2023-05-12T15:43:48.123Z,4.10
2023-05-12T15:46:14.903Z,3.00
2023-05-12T15:48:41.681Z,3.30
2023-05-12T15:51:08.437Z,3.50
2023-05-12T15:53:35.070Z,3.40
2023-05-12T15:56:05.552Z,3.30
2023-05-12T15:58:32.266Z,3.43
2023-05-12T16:00:59.365Z,3.23
2023-05-12T16:03:26.389Z,3.50
2023-05-12T16:05:53.228Z,3.50
2023-05-12T16:08:20.354Z,3.70
2023-05-12T16:10:46.992Z,4.03
2023-05-12T16:13:14.462Z,4.00
2023-05-12T16:15:41.226Z,4.20
2023-05-12T16:18:10.867Z,4.07
2023-05-12T16:20:38.761Z,3.80
2023-05-12T16:23:05.561Z,3.60
2023-05-12T16:25:32.191Z,4.00
2023-05-12T16:27:58.994Z,3.23
2023-05-12T16:30:26.387Z,3.93
2023-05-12T16:32:53.320Z,3.63
2023-05-12T16:35:20.928Z,3.57
2023-05-12T16:37:48.018Z,3.50
2023-05-12T16:40:15.270Z,3.30
2023-05-12T16:42:42.664Z,3.10
2023-05-12T16:45:10.880Z,4.47
2023-05-12T16:47:37.879Z,3.90
2023-05-12T16:50:05.413Z,3.90
2023-05-12T16:52:32.094Z,3.40
2023-05-12T16:54:58.741Z,3.83
2023-05-12T16:57:25.482Z,4.37
2023-05-12T16:59:52.162Z,3.90
2023-05-12T17:02:18.862Z,4.07
2023-05-12T17:04:46.612Z,3.70
2023-05-12T17:07:13.341Z,3.90
2023-05-12T17:09:40.204Z,4.00
2023-05-12T17:12:07.913Z,4.83
2023-05-12T17:14:37.940Z,4.00
2023-05-12T17:17:04.731Z,3.93
2023-05-12T17:19:31.424Z,3.93
2023-05-12T17:21:58.063Z,4.50
2023-05-12T17:24:24.851Z,4.00
2023-05-12T17:26:51.562Z,4.07
2023-05-12T17:29:18.297Z,4.30
2023-05-12T17:31:45.053Z,3.33
2023-05-12T17:34:11.745Z,4.00
2023-05-12T17:36:38.466Z,3.10
2023-05-12T17:39:05.768Z,3.27
2023-05-12T17:41:32.510Z,3.70
2023-05-12T17:43:59.152Z,3.00
2023-05-12T17:46:25.939Z,3.20
2023-05-12T17:48:52.578Z,3.67
2023-05-12T17:51:19.287Z,4.40
2023-05-12T17:53:46.415Z,3.57
2023-05-12T17:56:13.030Z,4.00
2023-05-12T17:58:39.697Z,4.30
2023-05-12T18:01:06.456Z,3.90
2023-05-12T18:03:33.165Z,3.70
2023-05-12T18:05:59.862Z,3.90
2023-05-12T18:08:27.133Z,3.33
2023-05-12T18:10:53.885Z,3.13
2023-05-12T18:13:20.658Z,2.97
2023-05-12T18:15:49.889Z,3.83
2023-05-12T18:18:16.726Z,4.10
2023-05-12T18:20:43.487Z,3.80
2023-05-12T18:23:10.193Z,3.40
2023-05-12T18:25:36.867Z,4.23
2023-05-12T18:28:03.711Z,4.23
2023-05-12T18:30:30.390Z,4.20
2023-05-12T18:32:57.290Z,3.90
2023-05-12T18:35:24.785Z,3.20
2023-05-12T18:37:51.489Z,4.27
2023-05-12T18:40:18.278Z,4.63
2023-05-12T18:42:44.977Z,3.87
2023-05-12T18:45:11.921Z,4.67
2023-05-12T18:47:39.275Z,4.00
2023-05-12T18:50:06.233Z,5.00
2023-05-12T18:52:32.849Z,4.33
2023-05-12T18:54:59.656Z,4.80
2023-05-12T18:57:26.710Z,3.53
2023-05-12T18:59:53.588Z,4.43
2023-05-12T19:02:20.713Z,4.50
2023-05-12T19:04:47.785Z,4.63
2023-05-12T19:07:15.690Z,4.20
2023-05-12T19:09:43.261Z,4.87
2023-05-12T19:12:13.400Z,4.90
2023-05-12T19:14:40.753Z,4.23
2023-05-12T19:17:07.732Z,4.90
2023-05-12T19:19:34.886Z,4.90
2023-05-12T19:22:01.710Z,4.13
2023-05-12T19:24:29.432Z,5.10
2023-05-12T19:26:56.250Z,4.67
2023-05-12T19:29:23.144Z,4.77
2023-05-12T19:31:50.931Z,4.87
2023-05-12T19:34:17.662Z,5.20
2023-05-12T19:36:44.515Z,4.70
2023-05-12T19:39:11.163Z,4.70
2023-05-12T19:41:39.287Z,4.33
2023-05-12T19:44:05.940Z,4.67
2023-05-12T19:46:32.675Z,4.80
2023-05-12T19:48:59.321Z,5.10
2023-05-12T19:51:25.970Z,5.50
2023-05-12T19:53:52.622Z,4.40
2023-05-12T19:56:19.638Z,5.77
2023-05-12T19:58:46.331Z,4.50
2023-05-12T20:01:13.011Z,5.40
2023-05-12T20:03:39.802Z,4.63
2023-05-12T20:06:06.528Z,5.37
2023-05-12T20:08:33.159Z,5.03
2023-05-12T20:10:59.782Z,4.80
2023-05-12T20:13:26.383Z,5.40
2023-05-12T20:15:52.982Z,5.50
2023-05-12T20:18:21.398Z,5.70
2023-05-12T20:20:48.144Z,5.23
2023-05-12T20:23:15.048Z,5.50
2023-05-12T20:25:42.232Z,5.73
2023-05-12T20:28:09.549Z,6.40
2023-05-12T20:30:36.510Z,5.40
2023-05-12T20:33:03.858Z,5.50
2023-05-12T20:35:30.486Z,5.77
2023-05-12T20:37:57.086Z,5.00
2023-05-12T20:40:23.726Z,5.50
2023-05-12T20:42:50.338Z,5.00
2023-05-12T20:45:17.298Z,5.07
2023-05-12T20:47:44.064Z,5.60
2023-05-12T20:50:12.470Z,5.80
2023-05-12T20:52:40.749Z,5.20
2023-05-12T20:55:08.209Z,6.13
2023-05-12T20:57:35.172Z,5.30
2023-05-12T21:00:01.793Z,5.50
2023-05-12T21:02:29.368Z,4.93
2023-05-12T21:04:56.324Z,5.80
2023-05-12T21:07:23.008Z,5.20
2023-05-12T21:09:49.815Z,5.10
2023-05-12T21:12:16.649Z,5.47
2023-05-12T21:14:45.315Z,5.73
2023-05-12T21:17:12.314Z,5.73
2023-05-12T21:19:40.041Z,6.20
2023-05-12T21:22:07.660Z,6.10
2023-05-12T21:24:34.471Z,5.93
2023-05-12T21:27:05.955Z,5.27
2023-05-12T21:29:33.356Z,5.30
2023-05-12T21:32:00.810Z,6.10
2023-05-12T21:34:27.722Z,6.03
2023-05-12T21:36:54.798Z,6.00
2023-05-12T21:39:21.954Z,5.20
2023-05-12T21:41:48.746Z,6.90
2023-05-12T21:44:15.422Z,5.10
2023-05-12T21:46:42.615Z,5.23
2023-05-12T21:49:09.358Z,5.43
2023-05-12T21:51:36.009Z,6.20
2023-05-12T21:54:02.637Z,6.53
2023-05-12T21:56:29.241Z,5.63
2023-05-12T21:58:55.934Z,5.70
2023-05-12T22:01:22.921Z,6.13
2023-05-12T22:03:49.895Z,6.23
2023-05-12T22:06:16.836Z,9.83
2023-05-12T22:08:43.542Z,6.13
2023-05-12T22:11:10.771Z,6.60
2023-05-12T22:13:37.450Z,5.40
2023-05-12T22:16:04.348Z,5.27
2023-05-12T22:18:31.679Z,5.53
2023-05-12T22:20:58.853Z,5.27
2023-05-12T22:23:25.511Z,5.73
2023-05-12T22:25:52.244Z,6.07
2023-05-12T22:28:18.876Z,6.30
2023-05-12T22:30:45.528Z,5.60
2023-05-12T22:33:12.183Z,6.33
2023-05-12T22:35:38.836Z,6.77
2023-05-12T22:38:05.707Z,5.00
2023-05-12T22:40:33.488Z,5.63
2023-05-12T22:43:00.225Z,7.00
2023-05-12T22:45:27.127Z,5.47
2023-05-12T22:47:54.004Z,6.23
2023-05-12T22:50:21.513Z,6.70
2023-05-12T22:52:48.387Z,6.00
2023-05-12T22:55:15.211Z,6.77
2023-05-12T22:57:43.673Z,7.47
2023-05-12T23:00:11.496Z,5.30
2023-05-12T23:02:38.253Z,6.30
2023-05-12T23:05:05.374Z,5.57
2023-05-12T23:07:32.016Z,6.43
2023-05-12T23:09:58.660Z,5.90
2023-05-12T23:12:25.773Z,5.70
2023-05-12T23:14:52.441Z,5.90
2023-05-12T23:17:20.756Z,6.80
2023-05-12T23:19:47.426Z,7.23
2023-05-12T23:22:14.103Z,7.17
2023-05-12T23:24:40.721Z,5.97
2023-05-12T23:27:07.315Z,6.60
2023-05-12T23:29:34.481Z,6.93
2023-05-12T23:32:01.343Z,6.07
2023-05-12T23:34:28.341Z,6.40
2023-05-12T23:36:55.124Z,6.60
2023-05-12T23:39:22.274Z,6.53
2023-05-12T23:41:49.576Z,5.80
2023-05-12T23:44:16.326Z,7.10
2023-05-12T23:46:43.046Z,6.73
2023-05-12T23:49:09.882Z,7.50
2023-05-12T23:51:36.512Z,7.13
2023-05-12T23:54:03.153Z,6.70
2023-05-12T23:56:29.810Z,6.47
2023-05-12T23:58:56.571Z,8.53
